Time;durP1;ratioP1;P1;durP2;ratioP2;P2;SDS_P1;SDS_P2;PMS_P1;PMS_P2;Temp;Humidity;BMP_temperature;BMP_pressure;BME280_temperature;BME280_humidity;BME280_pressure;Samples;Min_cycle;Max_cycle;Signal;HPM_P1;HPM_P2
2021/12/08 00:02:15;;;;;;;32.33;19.02;;;;;;;3.65;60.76;100973.41;5012138;28;20042;-63
2021/12/08 00:04:42;;;;;;;33.08;20.83;;;;;;;3.65;60.68;100972.56;5012803;28;20475;-70
2021/12/08 00:07:10;;;;;;;36.15;19.48;;;;;;;3.63;60.84;100971.75;5012663;28;20128;-62
2021/12/08 00:14:55;;;;;;;30.45;18.60;;;;;;;3.67;60.65;100965.56;5012671;28;20177;-62
2021/12/08 00:17:23;;;;;;;34.17;19.92;;;;;;;3.64;60.65;100966.50;5012663;28;20064;-63
2021/12/08 00:19:50;;;;;;;32.75;19.92;;;;;;;3.56;60.71;100973.63;5012543;28;20054;-63
2021/12/08 00:22:16;;;;;;;33.35;19.67;;;;;;;3.55;60.70;100971.94;5012490;28;20486;-63
2021/12/08 00:24:44;;;;;;;35.22;20.00;;;;;;;3.55;60.76;100961.53;5012654;28;20093;-64
2021/12/08 00:27:12;;;;;;;32.75;19.10;;;;;;;3.53;60.62;100965.91;5011950;28;20112;-62
2021/12/08 00:29:38;;;;;;;33.53;18.88;;;;;;;3.52;60.59;100962.47;5012324;28;20046;-62
2021/12/08 00:32:07;;;;;;;30.45;19.48;;;;;;;3.53;60.44;100953.81;5012419;28;20061;-63
2021/12/08 00:34:34;;;;;;;29.83;19.60;;;;;;;3.53;60.77;100956.41;5012612;28;20121;-64
2021/12/08 00:37:02;;;;;;;31.90;19.63;;;;;;;3.48;60.78;100957.38;5012534;28;20066;-62
2021/12/08 00:39:28;;;;;;;36.17;19.35;;;;;;;3.45;60.60;100967.84;5012381;28;20414;-63
2021/12/08 00:41:55;;;;;;;29.90;18.20;;;;;;;3.40;60.83;100961.03;5012062;28;20049;-62
2021/12/08 00:44:22;;;;;;;32.88;20.40;;;;;;;3.40;60.66;100958.44;5012549;28;20414;-63
2021/12/08 00:46:49;;;;;;;32.63;18.52;;;;;;;3.42;60.39;100953.22;5012434;28;20046;-62
2021/12/08 00:49:16;;;;;;;30.13;17.15;;;;;;;3.43;60.49;100958.34;5012340;28;20050;-62
2021/12/08 00:51:43;;;;;;;31.77;19.23;;;;;;;3.42;60.56;100954.03;5012504;28;20057;-63
2021/12/08 00:54:10;;;;;;;29.58;19.30;;;;;;;3.43;60.62;100957.50;5012408;28;20177;-63
2021/12/08 00:56:36;;;;;;;37.58;20.20;;;;;;;3.44;60.46;100948.81;5012250;28;20458;-63
2021/12/08 00:59:03;;;;;;;32.70;19.75;;;;;;;3.43;60.55;100947.97;5017691;28;20049;-62
2021/12/08 01:01:30;;;;;;;34.95;19.92;;;;;;;3.45;60.66;100937.56;5032074;28;20046;-62
2021/12/08 01:03:58;;;;;;;36.83;19.90;;;;;;;3.45;60.71;100932.38;5031992;28;20052;-62
2021/12/08 01:06:24;;;;;;;33.53;21.67;;;;;;;3.47;60.68;100933.19;5031998;28;20439;-69
2021/12/08 01:08:51;;;;;;;36.47;20.00;;;;;;;3.48;60.80;100923.66;5031799;28;20136;-62
2021/12/08 01:11:19;;;;;;;33.55;19.00;;;;;;;3.53;60.88;100920.06;5031955;28;20536;-62
2021/12/08 01:13:46;;;;;;;34.15;20.63;;;;;;;3.53;61.00;100927.88;5031834;28;20053;-62
2021/12/08 01:16:14;;;;;;;33.25;19.25;;;;;;;3.57;61.24;100926.03;5025358;28;20077;-63
2021/12/08 01:18:41;;;;;;;34.72;19.30;;;;;;;3.60;60.95;100897.41;5011713;28;20045;-62
2021/12/08 01:21:10;;;;;;;35.35;18.35;;;;;;;3.60;60.72;100895.66;5012025;28;20050;-63
2021/12/08 01:23:38;;;;;;;30.77;17.58;;;;;;;3.59;60.97;100887.91;5012007;28;20050;-62
2021/12/08 01:26:07;;;;;;;27.52;16.00;;;;;;;3.56;61.13;100888.00;5012007;28;20050;-62
2021/12/08 01:28:34;;;;;;;30.73;16.58;;;;;;;3.59;61.09;100881.00;5011937;28;20057;-63
2021/12/08 01:31:02;;;;;;;22.80;14.27;;;;;;;3.63;60.79;100875.72;5011950;28;20046;-63
2021/12/08 01:33:30;;;;;;;20.90;13.45;;;;;;;3.63;60.60;100876.59;5011624;28;20049;-62
2021/12/08 01:35:58;;;;;;;24.73;13.60;;;;;;;3.60;60.94;100874.06;5011910;28;20410;-62
2021/12/08 01:38:25;;;;;;;22.70;13.48;;;;;;;3.56;60.50;100852.53;5011935;28;20050;-63
2021/12/08 01:40:52;;;;;;;22.48;12.57;;;;;;;3.60;60.29;100843.75;5011869;28;20459;-62
2021/12/08 01:43:28;;;;;;;20.95;12.25;;;;;;;3.65;60.33;100842.81;5014751;28;20478;-62
2021/12/08 01:46:05;;;;;;;20.83;12.38;;;;;;;3.70;59.92;100848.72;5015223;28;20057;-62
2021/12/08 01:48:35;;;;;;;21.05;12.40;;;;;;;3.69;59.91;100850.47;5015262;28;20057;-63
2021/12/08 01:51:05;;;;;;;24.25;13.27;;;;;;;3.76;59.56;100856.38;5014610;28;20053;-63
2021/12/08 01:53:33;;;;;;;23.92;12.23;;;;;;;3.74;59.68;100851.19;5034949;28;20053;-62
2021/12/08 01:56:01;;;;;;;19.45;12.65;;;;;;;3.79;59.52;100847.66;5034855;28;20056;-63
2021/12/08 01:58:28;;;;;;;16.50;11.23;;;;;;;3.79;59.52;100858.88;5034791;28;20133;-63
2021/12/08 02:01:02;;;;;;;17.20;10.98;;;;;;;3.83;59.44;100862.22;5034780;28;20422;-62
2021/12/08 02:03:29;;;;;;;21.05;12.02;;;;;;;3.88;59.09;100853.41;5034762;28;20041;-62
2021/12/08 02:05:57;;;;;;;21.33;12.75;;;;;;;3.92;59.11;100846.41;5034746;28;20058;-62
2021/12/08 02:08:25;;;;;;;20.13;11.63;;;;;;;3.95;59.05;100835.06;5033384;28;20129;-62
2021/12/08 02:10:53;;;;;;;18.40;11.25;;;;;;;3.96;59.00;100840.25;5034470;28;20529;-62
2021/12/08 02:13:20;;;;;;;22.40;12.40;;;;;;;3.98;59.01;100830.66;5034687;28;20093;-62
2021/12/08 02:15:47;;;;;;;28.38;13.00;;;;;;;3.98;59.12;100824.63;5034615;28;20045;-62
2021/12/08 02:18:16;;;;;;;25.85;13.68;;;;;;;3.99;58.96;100826.34;5034333;28;20054;-62
2021/12/08 02:20:46;;;;;;;23.10;11.40;;;;;;;3.99;59.18;100826.34;5034434;28;20085;-62
2021/12/08 02:23:13;;;;;;;20.27;11.52;;;;;;;3.97;59.19;100826.34;5034351;28;20160;-62
2021/12/08 02:25:40;;;;;;;20.00;12.32;;;;;;;4.00;59.17;100823.69;5033635;28;20052;-62
2021/12/08 02:28:10;;;;;;;20.42;12.65;;;;;;;4.00;59.04;100809.84;5034294;28;20045;-62
2021/12/08 02:30:52;;;;;;;23.05;12.10;;;;;;;4.01;58.79;100803.75;5034338;28;20049;-63
2021/12/08 02:49:44;;;;;;;19.23;11.23;;;;;;;4.16;58.58;100782.53;5013880;28;20053;-62
2021/12/08 02:52:13;;;;;;;18.27;11.27;;;;;;;4.18;58.58;100777.31;5013595;28;20642;-62
2021/12/08 02:54:45;;;;;;;17.15;11.15;;;;;;;4.20;58.66;100781.56;5013213;28;20071;-62
2021/12/08 02:57:13;;;;;;;17.00;10.88;;;;;;;4.22;58.56;100771.97;5013770;28;20376;-62
2021/12/08 02:59:44;;;;;;;15.27;11.27;;;;;;;4.23;58.55;100778.88;5017074;28;20391;-62
2021/12/08 03:02:10;;;;;;;18.63;11.70;;;;;;;4.25;58.61;100771.91;5033618;28;20060;-62
2021/12/08 03:04:38;;;;;;;19.27;11.75;;;;;;;4.29;58.49;100774.38;5033819;28;20084;-63
2021/12/08 03:07:05;;;;;;;17.00;11.80;;;;;;;4.30;58.52;100763.09;5033648;28;20115;-62
2021/12/08 03:09:32;;;;;;;18.38;11.73;;;;;;;4.31;58.32;100767.41;5033624;28;20053;-62
2021/12/08 03:12:01;;;;;;;18.00;11.35;;;;;;;4.35;58.72;100763.81;5033474;28;20049;-63
2021/12/08 03:14:30;;;;;;;17.55;11.75;;;;;;;4.33;58.79;100763.88;5033418;28;20489;-62
2021/12/08 03:17:02;;;;;;;16.27;11.52;;;;;;;4.37;58.66;100760.28;5021204;28;20104;-62
2021/12/08 03:19:30;;;;;;;17.65;11.30;;;;;;;4.35;58.91;100758.63;5013570;28;20046;-62
2021/12/08 03:21:58;;;;;;;16.67;11.23;;;;;;;4.41;58.87;100761.03;5013466;28;20046;-62
2021/12/08 03:24:35;;;;;;;20.60;12.55;;;;;;;4.42;59.02;100765.34;5013614;28;20077;-62
2021/12/08 03:32:09;;;;;;;17.02;11.82;;;;;;;4.47;58.94;100758.25;5013246;28;20050;-62
2021/12/08 03:34:40;;;;;;;20.83;12.18;;;;;;;4.48;59.09;100752.16;5012564;28;20132;-63
2021/12/08 03:37:09;;;;;;;17.48;12.60;;;;;;;4.49;59.48;100753.00;5013069;28;20054;-62
2021/12/08 03:39:41;;;;;;;20.00;12.52;;;;;;;4.53;59.30;100744.19;5013273;28;20053;-62
2021/12/08 03:42:08;;;;;;;20.33;13.25;;;;;;;4.55;59.28;100738.06;5013149;28;20049;-62
2021/12/08 03:44:36;;;;;;;19.77;13.65;;;;;;;4.55;59.43;100732.84;5013268;28;20042;-62
2021/12/08 03:47:15;;;;;;;18.58;12.05;;;;;;;4.57;59.39;100733.66;5013183;28;20042;-63
2021/12/08 03:49:45;;;;;;;21.38;12.23;;;;;;;4.61;59.57;100733.56;5013207;28;20061;-62
2021/12/08 03:52:11;;;;;;;19.52;12.65;;;;;;;4.60;59.61;100708.47;5012672;28;20053;-62
2021/12/08 03:54:38;;;;;;;20.50;13.60;;;;;;;4.63;59.61;100710.97;5013075;28;20046;-62
2021/12/08 03:57:06;;;;;;;17.60;12.15;;;;;;;4.64;59.68;100703.13;5012849;28;20060;-62
2021/12/08 03:59:34;;;;;;;17.92;12.30;;;;;;;4.65;59.80;100694.44;5013077;28;20193;-62
2021/12/08 04:02:01;;;;;;;16.92;12.65;;;;;;;4.65;59.75;100685.81;5010949;28;20054;-62
2021/12/08 04:04:29;;;;;;;18.60;12.38;;;;;;;4.67;59.78;100679.66;5026579;28;20550;-63
2021/12/08 04:07:02;;;;;;;19.40;13.35;;;;;;;4.71;59.67;100668.25;5024892;28;20046;-62
2021/12/08 04:09:37;;;;;;;18.48;12.80;;;;;;;4.68;60.03;100676.13;5009719;28;20050;-62
2021/12/08 04:12:05;;;;;;;21.35;13.32;;;;;;;4.70;59.85;100676.09;5009443;28;20046;-63
2021/12/08 04:14:37;;;;;;;19.77;14.20;;;;;;;4.71;59.73;100669.97;5009757;28;20092;-62
2021/12/08 04:17:20;;;;;;;17.23;12.70;;;;;;;4.80;59.81;100668.81;5008816;28;20054;-62
2021/12/08 04:19:48;;;;;;;21.15;13.57;;;;;;;4.85;59.61;100667.78;5009303;28;20049;-63
2021/12/08 04:22:28;;;;;;;20.13;13.05;;;;;;;4.87;59.55;100662.53;5009272;28;20057;-62
2021/12/08 04:24:56;;;;;;;18.70;13.18;;;;;;;4.87;59.46;100665.94;5008927;28;20517;-62
2021/12/08 04:27:28;;;;;;;22.40;14.52;;;;;;;4.87;59.59;100665.94;5009342;28;20050;-62
2021/12/08 04:29:55;;;;;;;21.38;14.27;;;;;;;4.90;59.49;100658.06;5009285;28;20491;-62
2021/12/08 04:32:25;;;;;;;20.80;14.90;;;;;;;4.94;59.46;100664.03;5009268;28;20057;-62
2021/12/08 04:34:55;;;;;;;24.05;14.07;;;;;;;4.96;59.63;100656.16;5009253;28;20054;-62
2021/12/08 04:37:30;;;;;;;21.75;14.48;;;;;;;4.98;59.46;100652.59;5009191;28;20045;-62
2021/12/08 04:40:23;;;;;;;20.00;13.65;;;;;;;5.01;59.63;100651.63;5008743;28;20081;-62
2021/12/08 04:43:07;;;;;;;23.08;15.13;;;;;;;5.01;59.58;100646.44;5009047;28;20479;-62
2021/12/08 04:45:50;;;;;;;20.17;14.02;;;;;;;5.01;59.55;100644.69;5009443;28;20049;-62
2021/12/08 04:48:45;;;;;;;20.77;13.55;;;;;;;5.01;59.76;100642.06;5009026;28;20112;-62
2021/12/08 05:05:06;;;;;;;22.85;14.55;;;;;;;5.07;59.73;100622.81;5008821;28;20067;-63
2021/12/08 05:10:16;;;;;;;21.00;14.45;;;;;;;5.08;59.68;100619.31;5008888;28;20050;-62
2021/12/08 05:12:46;;;;;;;22.98;15.52;;;;;;;5.13;59.57;100625.22;5008443;28;20048;-62
2021/12/08 05:15:25;;;;;;;23.42;15.32;;;;;;;5.14;59.55;100628.66;5008776;28;20053;-62
2021/12/08 05:18:01;;;;;;;22.00;15.15;;;;;;;5.20;59.50;100634.47;5010910;28;20120;-62
2021/12/08 05:20:43;;;;;;;26.02;16.13;;;;;;;5.21;59.48;100630.97;5012846;28;20050;-62
2021/12/08 05:23:22;;;;;;;22.05;16.58;;;;;;;5.26;59.24;100625.59;5012345;28;20052;-62
2021/12/08 05:25:51;;;;;;;24.67;16.42;;;;;;;5.27;59.32;100623.84;5012730;28;20107;-62
2021/12/08 05:28:22;;;;;;;23.35;15.60;;;;;;;5.31;59.31;100615.03;5012302;28;20050;-62
2021/12/08 05:30:55;;;;;;;26.27;16.38;;;;;;;5.31;59.32;100615.88;5012421;28;20049;-62
2021/12/08 05:33:24;;;;;;;23.05;16.50;;;;;;;5.29;59.28;100603.84;5012309;28;20041;-62
2021/12/08 05:35:51;;;;;;;25.02;16.77;;;;;;;5.31;59.27;100602.03;5012173;28;20050;-62
2021/12/08 05:38:19;;;;;;;24.13;16.60;;;;;;;5.34;59.18;100607.09;5012107;28;20054;-62
2021/12/08 05:40:57;;;;;;;25.90;15.63;;;;;;;5.35;59.00;100611.41;5012286;28;20046;-62
2021/12/08 05:43:24;;;;;;;19.42;14.65;;;;;;;5.36;58.65;100603.53;5011134;28;20108;-62
2021/12/08 05:45:52;;;;;;;22.30;15.27;;;;;;;5.38;58.56;100609.56;5011328;28;20096;-62
2021/12/08 05:48:20;;;;;;;21.38;14.35;;;;;;;5.42;58.34;100612.03;5012000;28;20061;-62
2021/12/08 05:51:07;;;;;;;21.60;13.15;;;;;;;5.43;58.07;100611.13;5012197;28;20383;-63
2021/12/08 05:53:35;;;;;;;20.65;12.73;;;;;;;5.45;58.07;100609.31;5011953;28;20046;-62
2021/12/08 05:56:04;;;;;;;19.10;13.15;;;;;;;5.47;57.89;100612.69;5011912;28;20046;-63
2021/12/08 05:58:32;;;;;;;17.40;12.73;;;;;;;5.50;57.67;100616.03;5012057;28;20160;-62
2021/12/08 06:01:21;;;;;;;19.23;12.32;;;;;;;5.51;57.34;100609.94;5011825;28;20046;-62
2021/12/08 06:03:50;;;;;;;17.50;11.70;;;;;;;5.54;57.12;100604.59;5028519;28;20072;-63
2021/12/08 06:06:20;;;;;;;14.20;10.20;;;;;;;5.55;56.97;100611.50;5031661;28;20049;-63
2021/12/08 06:08:48;;;;;;;13.73;9.93;;;;;;;5.58;56.82;100601.91;5031848;28;20049;-62
2021/12/08 06:11:21;;;;;;;15.27;9.50;;;;;;;5.60;56.67;100590.53;5031502;28;20572;-62
2021/12/08 06:13:49;;;;;;;15.82;10.05;;;;;;;5.62;56.43;100599.09;5031347;28;20061;-63
2021/12/08 06:16:19;;;;;;;13.85;9.38;;;;;;;5.62;56.25;100596.50;5031411;28;20048;-62
2021/12/08 06:18:51;;;;;;;15.32;8.70;;;;;;;5.64;56.02;100594.69;5031156;28;20068;-63
2021/12/08 06:21:23;;;;;;;12.40;8.60;;;;;;;5.64;56.26;100594.69;5030469;28;20107;-62
2021/12/08 06:23:51;;;;;;;13.27;9.00;;;;;;;5.66;55.72;100584.22;5030946;28;20049;-62
2021/12/08 06:26:21;;;;;;;12.18;8.20;;;;;;;5.68;55.67;100579.81;5031412;28;20045;-62
2021/12/08 06:28:48;;;;;;;13.60;8.77;;;;;;;5.69;55.61;100574.53;5030744;28;20422;-63
2021/12/08 06:31:18;;;;;;;14.73;8.27;;;;;;;5.69;55.54;100565.88;5031191;28;20053;-63
2021/12/08 06:33:45;;;;;;;12.48;8.40;;;;;;;5.69;55.47;100558.09;5031067;28;20053;-63
2021/12/08 06:36:32;;;;;;;11.63;7.63;;;;;;;5.72;55.12;100561.38;5030780;28;20050;-62
2021/12/08 06:39:00;;;;;;;11.95;7.57;;;;;;;5.70;54.98;100549.34;5014302;28;20490;-63
2021/12/08 06:41:32;;;;;;;12.15;7.32;;;;;;;5.71;55.03;100538.88;5011009;28;20438;-63
2021/12/08 06:44:10;;;;;;;12.20;7.47;;;;;;;5.72;54.80;100532.75;5011285;28;20469;-62
2021/12/08 06:46:38;;;;;;;11.65;7.53;;;;;;;5.75;54.63;100536.97;5011097;28;20049;-63
2021/12/08 06:49:08;;;;;;;10.93;7.35;;;;;;;5.75;54.81;100536.16;5010767;28;20454;-63
2021/12/08 06:51:41;;;;;;;10.15;7.47;;;;;;;5.75;54.68;100533.53;5010848;28;20046;-63
2021/12/08 06:54:23;;;;;;;9.73;7.03;;;;;;;5.75;54.52;100534.38;5010123;28;20065;-62
2021/12/08 06:56:55;;;;;;;10.40;7.18;;;;;;;5.76;54.49;100537.84;5010740;28;20058;-63
2021/12/08 06:59:30;;;;;;;12.48;7.13;;;;;;;5.80;54.23;100524.66;5010840;28;20104;-62
2021/12/08 07:02:08;;;;;;;10.65;7.80;;;;;;;5.81;54.17;100525.50;5010595;28;20104;-62
2021/12/08 07:04:53;;;;;;;10.73;7.57;;;;;;;5.81;54.15;100530.69;5010811;28;20046;-62
2021/12/08 07:07:24;;;;;;;11.30;8.38;;;;;;;5.83;53.93;100516.72;5010378;28;20103;-63
2021/12/08 07:09:58;;;;;;;12.15;8.57;;;;;;;5.85;53.98;100506.22;5009903;28;20050;-62
2021/12/08 07:12:42;;;;;;;13.55;8.45;;;;;;;5.82;53.86;100508.97;5010487;28;20466;-64
2021/12/08 07:15:18;;;;;;;15.18;9.15;;;;;;;5.81;53.89;100500.28;5010427;28;20064;-63
2021/12/08 07:17:50;;;;;;;16.92;8.85;;;;;;;5.78;53.87;100492.63;5009914;28;20094;-63
2021/12/08 07:22:57;;;;;;;14.57;9.00;;;;;;;5.74;53.98;100488.44;5010509;28;20073;-64
2021/12/08 07:25:26;;;;;;;12.27;8.80;;;;;;;5.75;53.85;100490.13;5010257;28;20049;-64
2021/12/08 07:27:54;;;;;;;13.35;9.25;;;;;;;5.73;53.86;100479.78;5010107;28;20414;-64
2021/12/08 07:30:26;;;;;;;13.73;9.35;;;;;;;5.75;53.97;100481.47;5010448;28;20049;-64
2021/12/08 07:32:53;;;;;;;16.65;10.48;;;;;;;5.72;53.83;100483.28;5009957;28;20046;-64
2021/12/08 07:35:28;;;;;;;16.38;9.63;;;;;;;5.71;53.59;100481.63;5010125;28;20049;-62
2021/12/08 07:37:57;;;;;;;13.65;9.50;;;;;;;5.70;53.67;100481.66;5009971;28;20576;-62
2021/12/08 07:40:30;;;;;;;14.43;9.50;;;;;;;5.71;53.54;100481.63;5009206;28;20049;-62
2021/12/08 07:43:01;;;;;;;11.98;8.25;;;;;;;5.68;53.55;100484.31;5010048;28;20486;-63
2021/12/08 07:45:36;;;;;;;11.30;8.32;;;;;;;5.69;53.59;100487.78;5009318;28;20088;-62
2021/12/08 07:48:07;;;;;;;11.07;7.90;;;;;;;5.70;53.48;100485.13;5009863;28;20494;-64
2021/12/08 07:50:47;;;;;;;10.75;7.75;;;;;;;5.72;53.05;100482.44;5009783;28;20053;-64
2021/12/08 07:53:18;;;;;;;11.10;7.65;;;;;;;5.75;52.96;100481.47;5009903;28;20046;-64
2021/12/08 07:55:49;;;;;;;9.27;7.20;;;;;;;5.77;52.84;100483.09;5009668;28;20466;-64
2021/12/08 07:58:18;;;;;;;8.35;5.93;;;;;;;5.83;52.59;100479.41;5009539;28;20052;-64
2021/12/08 08:00:54;;;;;;;10.65;6.90;;;;;;;5.85;52.60;100482.78;5009618;28;20049;-64
2021/12/08 08:03:23;;;;;;;9.15;5.95;;;;;;;5.85;52.43;100462.81;5009255;28;20096;-64
2021/12/08 08:05:52;;;;;;;10.13;5.25;;;;;;;5.83;52.46;100464.63;5009565;28;20117;-64
2021/12/08 08:08:24;;;;;;;9.32;5.35;;;;;;;5.84;52.25;100476.75;5009674;28;20104;-64
2021/12/08 08:10:57;;;;;;;8.15;5.40;;;;;;;5.83;52.45;100464.63;5009649;28;20056;-62
2021/12/08 08:13:25;;;;;;;8.90;5.15;;;;;;;5.78;52.49;100470.94;5009796;28;20060;-61
2021/12/08 08:16:13;;;;;;;7.43;4.80;;;;;;;5.75;52.60;100440.66;5009253;28;20086;-59
2021/12/08 08:18:47;;;;;;;9.60;5.15;;;;;;;5.75;52.71;100437.22;5008788;28;20058;-59
2021/12/08 08:21:21;;;;;;;8.15;5.20;;;;;;;5.77;52.69;100423.22;5009261;28;20092;-59
2021/12/08 08:23:52;;;;;;;7.60;5.07;;;;;;;5.75;52.88;100425.03;5009244;28;20046;-59
2021/12/08 08:26:19;;;;;;;7.22;4.82;;;;;;;5.73;52.85;100425.09;5009454;28;20073;-59
2021/12/08 08:28:50;;;;;;;7.40;4.47;;;;;;;5.73;53.15;100414.69;5009097;28;20049;-59
2021/12/08 08:31:25;;;;;;;6.72;4.30;;;;;;;5.74;53.29;100392.13;5009273;28;20137;-60
2021/12/08 08:33:52;;;;;;;6.55;4.38;;;;;;;5.73;53.36;100380.84;5009139;28;20081;-59
2021/12/08 08:36:26;;;;;;;7.57;4.90;;;;;;;5.73;53.66;100395.63;5008584;28;20371;-59
2021/12/08 08:39:10;;;;;;;7.80;5.15;;;;;;;5.75;53.89;100411.19;5008859;28;20129;-58
2021/12/08 08:41:45;;;;;;;7.30;4.57;;;;;;;5.74;54.00;100418.16;5009593;28;20691;-59
2021/12/08 08:44:27;;;;;;;8.63;5.45;;;;;;;5.73;54.24;100413.84;5008971;28;20104;-59
2021/12/08 08:46:55;;;;;;;6.45;4.57;;;;;;;5.67;54.85;100394.13;5009175;28;20077;-59
2021/12/08 08:49:26;;;;;;;6.40;4.00;;;;;;;5.64;54.98;100375.19;5009239;28;20050;-59
2021/12/08 08:52:01;;;;;;;5.90;3.92;;;;;;;5.62;55.04;100383.06;5010925;28;20048;-59
2021/12/08 08:54:34;;;;;;;6.40;4.00;;;;;;;5.60;55.15;100394.44;5013292;28;20050;-59
2021/12/08 08:57:08;;;;;;;7.43;4.13;;;;;;;5.62;55.18;100398.66;5012812;28;20050;-59
2021/12/08 08:59:42;;;;;;;5.75;4.05;;;;;;;5.60;55.38;100373.63;5012753;28;20417;-58
2021/12/08 09:02:17;;;;;;;5.25;4.05;;;;;;;5.60;55.74;100358.84;5012845;28;20449;-60
2021/12/08 09:04:51;;;;;;;7.80;4.05;;;;;;;5.59;55.59;100370.19;5013004;28;20045;-58
2021/12/08 09:07:23;;;;;;;6.40;4.10;;;;;;;5.56;55.86;100360.75;5016168;28;20095;-59
2021/12/08 09:09:54;;;;;;;8.60;4.03;;;;;;;5.53;56.08;100358.25;5032226;28;20050;-58
2021/12/08 09:12:30;;;;;;;5.15;3.70;;;;;;;5.53;56.34;100365.22;5032399;28;20060;-59
2021/12/08 09:15:03;;;;;;;5.93;4.00;;;;;;;5.49;56.27;100361.91;5032588;28;20049;-59
2021/12/08 09:17:40;;;;;;;5.78;3.97;;;;;;;5.49;56.40;100371.47;5032389;28;20062;-59
2021/12/08 09:20:20;;;;;;;7.30;4.65;;;;;;;5.48;56.31;100370.59;5032093;28;20051;-59
2021/12/08 09:22:57;;;;;;;7.05;4.15;;;;;;;5.50;56.41;100374.00;5032279;28;20506;-59
2021/12/08 09:25:46;;;;;;;6.43;4.00;;;;;;;5.48;56.27;100365.41;5012603;28;20053;-59
2021/12/08 09:28:29;;;;;;;5.80;4.10;;;;;;;5.47;56.35;100357.66;5012165;28;20061;-61
2021/12/08 09:31:10;;;;;;;5.60;3.88;;;;;;;5.44;56.36;100340.44;5012384;28;20045;-59
2021/12/08 09:33:52;;;;;;;8.27;5.05;;;;;;;5.43;56.31;100332.69;5012133;28;20573;-59
2021/12/08 09:36:25;;;;;;;7.35;4.22;;;;;;;5.39;56.41;100330.19;5012146;28;20053;-59
2021/12/08 09:38:57;;;;;;;7.20;4.70;;;;;;;5.38;56.54;100325.06;5012081;28;20049;-59
2021/12/08 09:41:51;;;;;;;8.88;6.00;;;;;;;5.37;56.59;100332.03;5011822;28;20080;-59
2021/12/08 09:44:25;;;;;;;8.52;5.00;;;;;;;5.36;56.76;100319.09;5012285;28;20049;-59
2021/12/08 09:46:53;;;;;;;9.00;5.72;;;;;;;5.32;56.72;100302.78;5011866;28;20490;-59
2021/12/08 09:49:23;;;;;;;8.73;5.10;;;;;;;5.33;57.05;100306.19;5011784;28;20057;-59
2021/12/08 09:51:56;;;;;;;10.15;6.05;;;;;;;5.32;57.39;100307.97;5011641;28;20524;-59
2021/12/08 09:54:23;;;;;;;9.30;5.57;;;;;;;5.30;57.84;100275.97;5011614;28;20048;-59
2021/12/08 09:56:53;;;;;;;10.10;5.68;;;;;;;5.32;58.40;100287.16;5024027;28;20053;-59
2021/12/08 09:59:21;;;;;;;10.85;6.97;;;;;;;5.33;58.31;100268.03;5031708;28;20108;-59
2021/12/08 10:01:50;;;;;;;12.20;7.07;;;;;;;5.34;58.66;100255.88;5031578;28;20056;-59
2021/12/08 10:04:18;;;;;;;11.10;6.40;;;;;;;5.34;59.25;100255.88;5030660;28;20045;-59
2021/12/08 10:06:49;;;;;;;10.43;6.28;;;;;;;5.35;59.30;100262.78;5031456;28;20049;-59
2021/12/08 10:09:18;;;;;;;11.77;6.53;;;;;;;5.33;59.87;100261.97;5031216;28;20045;-59
2021/12/08 10:11:45;;;;;;;11.13;6.75;;;;;;;5.32;60.21;100255.94;5027847;28;20048;-59
2021/12/08 10:14:13;;;;;;;14.30;8.70;;;;;;;5.34;60.51;100240.25;5011532;28;20053;-59
2021/12/08 10:16:40;;;;;;;14.02;8.73;;;;;;;5.34;61.06;100243.69;5011032;28;20042;-59
2021/12/08 10:19:07;;;;;;;14.98;9.43;;;;;;;5.36;61.46;100235.84;5011271;28;20061;-59
2021/12/08 10:21:39;;;;;;;12.88;7.75;;;;;;;5.35;61.79;100221.13;5011402;28;20061;-59
2021/12/08 10:24:24;;;;;;;16.83;9.75;;;;;;;5.34;62.47;100199.47;5011191;28;20100;-59
2021/12/08 10:27:00;;;;;;;17.70;8.50;;;;;;;5.33;62.92;100196.94;5011063;28;20046;-59
2021/12/08 10:29:29;;;;;;;12.23;7.43;;;;;;;5.35;63.51;100182.13;5011098;28;20050;-59
2021/12/08 10:31:59;;;;;;;13.60;7.63;;;;;;;5.37;63.93;100182.88;5011191;28;20095;-59
2021/12/08 10:34:34;;;;;;;14.20;8.45;;;;;;;5.38;64.38;100166.34;5011489;28;20056;-60
2021/12/08 10:37:05;;;;;;;13.23;7.60;;;;;;;5.36;64.74;100171.63;5011140;28;20410;-59
2021/12/08 10:39:47;;;;;;;15.50;8.25;;;;;;;5.38;65.32;100166.34;5010875;28;20113;-59
2021/12/08 10:42:19;;;;;;;17.30;9.85;;;;;;;5.40;65.94;100154.97;5010826;28;20050;-59
2021/12/08 10:47:36;;;;;;;11.52;7.20;;;;;;;5.49;66.53;100151.09;5011271;28;20427;-59
2021/12/08 10:55:53;;;;;;;9.82;6.53;;;;;;;5.56;67.21;100128.25;5030418;28;20053;-59
2021/12/08 10:58:23;;;;;;;12.65;6.63;;;;;;;5.53;67.82;100131.00;5030406;28;20049;-59
2021/12/08 11:00:52;;;;;;;9.60;6.45;;;;;;;5.53;68.01;100126.63;5030428;28;20046;-59
2021/12/08 11:03:20;;;;;;;11.27;7.30;;;;;;;5.52;68.37;100131.91;5030257;28;20494;-60
2021/12/08 11:05:53;;;;;;;10.50;7.22;;;;;;;5.53;68.38;100133.59;5018699;28;20046;-59
2021/12/08 11:08:32;;;;;;;10.02;7.00;;;;;;;5.51;68.74;100127.63;5010415;28;20486;-59
2021/12/08 11:11:18;;;;;;;9.80;6.45;;;;;;;5.47;69.23;100107.84;5010297;28;20058;-64
2021/12/08 11:13:47;;;;;;;8.73;5.70;;;;;;;5.47;69.41;100106.13;5010400;28;20409;-59
2021/12/08 11:16:20;;;;;;;7.60;5.40;;;;;;;5.46;69.66;100107.03;5010498;28;20060;-59
2021/12/08 11:19:14;;;;;;;7.57;5.75;;;;;;;5.46;69.86;100108.75;5009964;28;20065;-59
2021/12/08 11:21:48;;;;;;;8.85;5.60;;;;;;;5.45;70.17;100107.94;5007815;28;20049;-59
2021/12/08 11:24:20;;;;;;;8.68;5.40;;;;;;;5.46;70.15;100104.44;5010495;28;20046;-59
2021/12/08 11:26:49;;;;;;;9.63;5.32;;;;;;;5.46;70.35;100095.75;5010269;28;20805;-59
2021/12/08 11:29:18;;;;;;;12.80;5.50;;;;;;;5.46;70.63;100095.75;5010271;28;20046;-63
2021/12/08 11:31:54;;;;;;;8.10;5.13;;;;;;;5.43;70.73;100083.72;5009919;28;20061;-59
2021/12/08 11:34:29;;;;;;;5.70;4.97;;;;;;;5.45;71.04;100073.28;5010244;28;20073;-61
2021/12/08 11:37:02;;;;;;;7.85;5.57;;;;;;;5.43;71.12;100056.88;5010066;28;20046;-58
2021/12/08 11:39:35;;;;;;;6.85;5.10;;;;;;;5.40;71.56;100061.31;5025459;28;20045;-58
2021/12/08 11:42:08;;;;;;;7.05;4.68;;;;;;;5.42;71.56;100043.00;5029822;28;20053;-60
2021/12/08 11:44:37;;;;;;;5.53;4.15;;;;;;;5.43;71.62;100042.09;5029909;28;20095;-61
2021/12/08 11:47:11;;;;;;;5.15;3.75;;;;;;;5.40;71.79;100040.47;5029566;28;20049;-61
2021/12/08 11:49:49;;;;;;;8.45;4.60;;;;;;;5.45;71.81;100032.47;5029497;28;20057;-62
2021/12/08 11:52:19;;;;;;;7.70;5.55;;;;;;;5.48;72.09;100032.31;5029472;28;20144;-62
2021/12/08 11:55:02;;;;;;;6.70;5.22;;;;;;;5.46;72.00;100018.56;5014443;28;20058;-61
2021/12/08 11:57:42;;;;;;;6.05;3.97;;;;;;;5.43;72.02;100010.88;5009527;28;20046;-61
2021/12/08 12:00:45;;;;;;;5.60;4.10;;;;;;;5.37;72.29;100004.22;5009490;28;20054;-62
2021/12/08 12:03:14;;;;;;;5.15;4.03;;;;;;;5.36;72.60;100014.69;5009257;28;20129;-61
2021/12/08 12:05:44;;;;;;;8.23;4.53;;;;;;;5.35;73.03;99994.78;5009538;28;20498;-62
2021/12/08 12:08:17;;;;;;;4.88;3.70;;;;;;;5.32;72.93;99984.53;5009468;28;20050;-61
2021/12/08 12:10:47;;;;;;;3.95;2.97;;;;;;;5.30;73.19;99966.38;5008595;28;20046;-61
2021/12/08 12:13:14;;;;;;;5.50;3.83;;;;;;;5.35;73.38;99984.41;5009478;28;20052;-61
2021/12/08 12:15:49;;;;;;;4.97;3.42;;;;;;;5.35;73.19;99979.19;5009492;28;20049;-62
2021/12/08 12:18:19;;;;;;;4.07;3.00;;;;;;;5.35;73.31;99981.78;5009418;28;20057;-62
2021/12/08 12:20:50;;;;;;;5.40;2.92;;;;;;;5.35;73.27;99990.44;5009471;28;20062;-63
2021/12/08 12:24:05;;;;;;;3.30;2.20;;;;;;;5.33;73.60;99984.47;5009362;28;20049;-61
2021/12/08 12:26:59;;;;;;;2.92;2.25;;;;;;;5.30;73.69;99979.41;4987309;28;20490;-62
2021/12/08 12:29:41;;;;;;;2.30;2.05;;;;;;;5.30;73.69;99982.00;4998954;28;20057;-62
2021/12/08 12:32:31;;;;;;;2.40;1.80;;;;;;;5.26;73.69;99983.06;5023719;28;20049;-61
2021/12/08 12:35:11;;;;;;;2.42;1.60;;;;;;;5.25;73.69;99990.94;5029028;28;20047;-62
2021/12/08 12:37:39;;;;;;;2.38;1.73;;;;;;;5.23;74.08;99996.19;5028889;28;20049;-62
2021/12/08 12:40:13;;;;;;;3.60;2.05;;;;;;;5.26;73.94;99982.19;5028778;28;20076;-62
2021/12/08 12:42:47;;;;;;;3.33;2.00;;;;;;;5.25;73.93;99975.34;5029060;28;20049;-63